TimeEAT,TemperatureF,Dew PointF,Humidity,Sea Level PressureIn,VisibilityMPH,Wind Direction,Wind SpeedMPH,Gust SpeedMPH,PrecipitationIn,Events,Conditions,WindDirDegrees,DateUTC
1:00 AM,59.0,57.2,94,-9999,-9999.0,Calm,Calm,-,N/A,,Clear,0,2012-10-06 22:00:00
2:00 AM,57.2,55.4,94,-9999,-9999.0,Calm,Calm,-,N/A,,Clear,0,2012-10-06 23:00:00
3:00 AM,56,54,93,,19,NE,4.6,,,,,50,2012-10-07 00:00:00
4:00 AM,55.4,53.6,94,-9999,-9999.0,Calm,Calm,-,N/A,,Clear,0,2012-10-07 01:00:00
5:00 AM,55.4,53.6,94,-9999,-9999.0,Calm,Calm,-,N/A,,Clear,0,2012-10-07 02:00:00
7:00 AM,53.6,51.8,94,-9999,-9999.0,Calm,Calm,-,N/A,,Clear,0,2012-10-07 04:00:00
8:00 AM,60.8,55.4,82,-9999,-9999.0,East,4.6,-,N/A,,Clear,90,2012-10-07 05:00:00
9:00 AM,67,56,59,,19,Calm,Calm,,,,Scattered Clouds,,2012-10-07 06:00:00
10:00 AM,71.6,53.6,53,-9999,6.2,West,3.5,-,N/A,,Partly Cloudy,270,2012-10-07 07:00:00
11:00 AM,75.2,57.2,53,-9999,6.2,WNW,4.6,-,N/A,,Partly Cloudy,290,2012-10-07 08:00:00
1:00 PM,77.0,57.2,50,-9999,6.2,North,4.6,-,N/A,,Scattered Clouds,360,2012-10-07 10:00:00
2:00 PM,71.6,57.2,60,-9999,6.2,NE,4.6,-,N/A,,Mostly Cloudy,50,2012-10-07 11:00:00
3:00 PM,70,58,58,,19,Calm,Calm,,,Thunderstorm,Thunderstorm,,2012-10-07 12:00:00
4:00 PM,73.4,60.8,65,-9999,6.2,Calm,Calm,-,N/A,,Scattered Clouds,0,2012-10-07 13:00:00
5:00 PM,77.0,57.2,50,-9999,6.2,West,5.8,-,N/A,,Mostly Cloudy,270,2012-10-07 14:00:00
7:00 PM,62.6,57.2,82,-9999,6.2,East,4.6,-,N/A,,Scattered Clouds,90,2012-10-07 16:00:00
8:00 PM,60.8,57.2,88,-9999,-9999.0,SW,4.6,-,N/A,,Clear,230,2012-10-07 17:00:00
9:00 PM,59,58,94,,19,East,4.6,,,,Partly Cloudy,90,2012-10-07 18:00:00
10:00 PM,59.0,57.2,94,-9999,-9999.0,SE,6.9,-,N/A,,Clear,140,2012-10-07 19:00:00
11:00 PM,60.8,57.2,88,-9999,-9999.0,East,6.9,-,N/A,,Clear,90,2012-10-07 20:00:00